sensor_id;sensor_type;location;lat;lon;timestamp;P1;durP1;ratioP1;P2;durP2;ratioP2
75537;SDS011;64121;48.666;8.114;2023-05-10T00:02:06;1.05;;;0.30;;
75537;SDS011;64121;48.666;8.114;2023-05-10T00:04:31;0.30;;;0.22;;
75537;SDS011;64121;48.666;8.114;2023-05-10T00:06:58;1.10;;;0.20;;
75537;SDS011;64121;48.666;8.114;2023-05-10T00:09:23;3.22;;;0.80;;
75537;SDS011;64121;48.666;8.114;2023-05-10T00:11:48;1.08;;;0.35;;
75537;SDS011;64121;48.666;8.114;2023-05-10T00:14:14;0.98;;;0.50;;
75537;SDS011;64121;48.666;8.114;2023-05-10T00:16:39;1.38;;;0.50;;
75537;SDS011;64121;48.666;8.114;2023-05-10T00:19:05;0.90;;;0.52;;
75537;SDS011;64121;48.666;8.114;2023-05-10T00:21:30;0.60;;;0.45;;
75537;SDS011;64121;48.666;8.114;2023-05-10T00:23:57;0.60;;;0.47;;
75537;SDS011;64121;48.666;8.114;2023-05-10T00:26:22;1.70;;;0.55;;
75537;SDS011;64121;48.666;8.114;2023-05-10T00:28:47;0.82;;;0.50;;
75537;SDS011;64121;48.666;8.114;2023-05-10T00:31:13;0.80;;;0.50;;
75537;SDS011;64121;48.666;8.114;2023-05-10T00:33:38;2.63;;;0.80;;
75537;SDS011;64121;48.666;8.114;2023-05-10T00:36:03;1.50;;;0.60;;
75537;SDS011;64121;48.666;8.114;2023-05-10T00:38:29;1.63;;;0.60;;
75537;SDS011;64121;48.666;8.114;2023-05-10T00:40:56;1.67;;;0.60;;
75537;SDS011;64121;48.666;8.114;2023-05-10T00:43:21;1.40;;;0.60;;
75537;SDS011;64121;48.666;8.114;2023-05-10T00:45:46;1.15;;;0.70;;
75537;SDS011;64121;48.666;8.114;2023-05-10T00:48:12;1.40;;;0.70;;
75537;SDS011;64121;48.666;8.114;2023-05-10T00:50:38;1.17;;;0.70;;
75537;SDS011;64121;48.666;8.114;2023-05-10T00:53:03;1.23;;;0.70;;
75537;SDS011;64121;48.666;8.114;2023-05-10T00:55:29;2.00;;;0.85;;
75537;SDS011;64121;48.666;8.114;2023-05-10T00:57:56;0.90;;;0.50;;
75537;SDS011;64121;48.666;8.114;2023-05-10T01:00:22;1.75;;;0.88;;
75537;SDS011;64121;48.666;8.114;2023-05-10T01:02:47;1.60;;;0.75;;
75537;SDS011;64121;48.666;8.114;2023-05-10T01:05:12;1.05;;;0.55;;
75537;SDS011;64121;48.666;8.114;2023-05-10T01:07:38;2.67;;;0.60;;
75537;SDS011;64121;48.666;8.114;2023-05-10T01:10:04;1.73;;;0.77;;
75537;SDS011;64121;48.666;8.114;2023-05-10T01:12:30;1.25;;;0.68;;
75537;SDS011;64121;48.666;8.114;2023-05-10T01:14:56;1.48;;;0.73;;
75537;SDS011;64121;48.666;8.114;2023-05-10T01:17:22;1.38;;;0.80;;
75537;SDS011;64121;48.666;8.114;2023-05-10T01:19:48;3.03;;;0.70;;
75537;SDS011;64121;48.666;8.114;2023-05-10T01:22:22;1.02;;;0.65;;
75537;SDS011;64121;48.666;8.114;2023-05-10T01:25:18;2.10;;;0.80;;
75537;SDS011;64121;48.666;8.114;2023-05-10T01:30:42;2.05;;;0.70;;
75537;SDS011;64121;48.666;8.114;2023-05-10T01:33:31;1.27;;;0.70;;
75537;SDS011;64121;48.666;8.114;2023-05-10T01:36:02;0.88;;;0.63;;
75537;SDS011;64121;48.666;8.114;2023-05-10T01:38:36;2.28;;;0.90;;
75537;SDS011;64121;48.666;8.114;2023-05-10T01:41:08;1.02;;;0.65;;
75537;SDS011;64121;48.666;8.114;2023-05-10T01:43:41;1.55;;;0.82;;
75537;SDS011;64121;48.666;8.114;2023-05-10T01:46:14;1.58;;;0.90;;
75537;SDS011;64121;48.666;8.114;2023-05-10T01:48:46;1.42;;;0.90;;
75537;SDS011;64121;48.666;8.114;2023-05-10T01:51:13;1.20;;;0.68;;
75537;SDS011;64121;48.666;8.114;2023-05-10T01:53:44;1.92;;;0.70;;
75537;SDS011;64121;48.666;8.114;2023-05-10T01:56:12;1.58;;;0.68;;
75537;SDS011;64121;48.666;8.114;2023-05-10T01:58:40;1.98;;;0.60;;
75537;SDS011;64121;48.666;8.114;2023-05-10T02:01:09;1.13;;;0.60;;
75537;SDS011;64121;48.666;8.114;2023-05-10T02:03:35;1.40;;;0.80;;
75537;SDS011;64121;48.666;8.114;2023-05-10T02:06:04;1.88;;;0.85;;
75537;SDS011;64121;48.666;8.114;2023-05-10T02:08:30;1.25;;;0.60;;
75537;SDS011;64121;48.666;8.114;2023-05-10T02:10:57;1.35;;;0.80;;
75537;SDS011;64121;48.666;8.114;2023-05-10T02:13:24;1.10;;;0.80;;
75537;SDS011;64121;48.666;8.114;2023-05-10T02:15:51;3.13;;;0.70;;
75537;SDS011;64121;48.666;8.114;2023-05-10T02:18:19;2.08;;;0.80;;
75537;SDS011;64121;48.666;8.114;2023-05-10T02:20:45;1.08;;;0.70;;
75537;SDS011;64121;48.666;8.114;2023-05-10T02:23:13;2.28;;;0.65;;
75537;SDS011;64121;48.666;8.114;2023-05-10T02:25:40;2.10;;;0.60;;
75537;SDS011;64121;48.666;8.114;2023-05-10T02:28:08;2.28;;;0.70;;
75537;SDS011;64121;48.666;8.114;2023-05-10T02:30:35;0.73;;;0.40;;
75537;SDS011;64121;48.666;8.114;2023-05-10T02:33:01;1.55;;;0.80;;
75537;SDS011;64121;48.666;8.114;2023-05-10T02:35:29;1.20;;;0.80;;
75537;SDS011;64121;48.666;8.114;2023-05-10T02:37:56;2.60;;;0.80;;
75537;SDS011;64121;48.666;8.114;2023-05-10T02:40:24;1.48;;;0.77;;
75537;SDS011;64121;48.666;8.114;2023-05-10T02:42:52;3.45;;;1.20;;
75537;SDS011;64121;48.666;8.114;2023-05-10T02:45:21;1.70;;;1.20;;
75537;SDS011;64121;48.666;8.114;2023-05-10T02:47:50;1.25;;;0.80;;
75537;SDS011;64121;48.666;8.114;2023-05-10T02:50:16;2.30;;;0.73;;
75537;SDS011;64121;48.666;8.114;2023-05-10T02:52:42;1.33;;;0.90;;
75537;SDS011;64121;48.666;8.114;2023-05-10T02:55:11;1.88;;;0.88;;
75537;SDS011;64121;48.666;8.114;2023-05-10T02:57:41;1.60;;;0.95;;
75537;SDS011;64121;48.666;8.114;2023-05-10T03:00:13;2.45;;;0.95;;
75537;SDS011;64121;48.666;8.114;2023-05-10T03:02:39;2.55;;;1.10;;
75537;SDS011;64121;48.666;8.114;2023-05-10T03:05:04;1.23;;;0.70;;
75537;SDS011;64121;48.666;8.114;2023-05-10T03:07:30;1.65;;;0.80;;
75537;SDS011;64121;48.666;8.114;2023-05-10T03:09:55;2.30;;;1.02;;
75537;SDS011;64121;48.666;8.114;2023-05-10T03:12:23;1.52;;;0.80;;
75537;SDS011;64121;48.666;8.114;2023-05-10T03:15:00;1.15;;;0.80;;
75537;SDS011;64121;48.666;8.114;2023-05-10T03:17:29;1.67;;;0.80;;
75537;SDS011;64121;48.666;8.114;2023-05-10T03:20:02;2.03;;;0.98;;
75537;SDS011;64121;48.666;8.114;2023-05-10T03:22:32;3.05;;;0.90;;
75537;SDS011;64121;48.666;8.114;2023-05-10T03:24:59;1.95;;;0.88;;
75537;SDS011;64121;48.666;8.114;2023-05-10T03:27:29;1.85;;;0.82;;
75537;SDS011;64121;48.666;8.114;2023-05-10T03:29:55;2.58;;;0.90;;
75537;SDS011;64121;48.666;8.114;2023-05-10T03:32:23;1.33;;;0.80;;
75537;SDS011;64121;48.666;8.114;2023-05-10T03:34:49;1.92;;;0.85;;
75537;SDS011;64121;48.666;8.114;2023-05-10T03:37:14;2.05;;;1.10;;
75537;SDS011;64121;48.666;8.114;2023-05-10T03:39:40;2.13;;;0.77;;
75537;SDS011;64121;48.666;8.114;2023-05-10T03:42:05;1.50;;;0.70;;
75537;SDS011;64121;48.666;8.114;2023-05-10T03:44:31;1.40;;;1.00;;
75537;SDS011;64121;48.666;8.114;2023-05-10T03:46:56;1.70;;;1.05;;
75537;SDS011;64121;48.666;8.114;2023-05-10T03:49:23;2.13;;;1.00;;
75537;SDS011;64121;48.666;8.114;2023-05-10T03:51:48;4.40;;;1.10;;
75537;SDS011;64121;48.666;8.114;2023-05-10T03:54:13;2.20;;;1.00;;
75537;SDS011;64121;48.666;8.114;2023-05-10T03:56:39;1.92;;;1.08;;
75537;SDS011;64121;48.666;8.114;2023-05-10T03:59:04;3.15;;;1.20;;
75537;SDS011;64121;48.666;8.114;2023-05-10T04:01:29;2.75;;;1.30;;
75537;SDS011;64121;48.666;8.114;2023-05-10T04:03:55;2.45;;;1.30;;
75537;SDS011;64121;48.666;8.114;2023-05-10T04:06:21;1.83;;;1.02;;
75537;SDS011;64121;48.666;8.114;2023-05-10T04:08:47;1.95;;;1.02;;
75537;SDS011;64121;48.666;8.114;2023-05-10T04:11:12;2.15;;;1.20;;
75537;SDS011;64121;48.666;8.114;2023-05-10T04:13:37;1.90;;;1.30;;
75537;SDS011;64121;48.666;8.114;2023-05-10T04:16:03;1.88;;;0.98;;
75537;SDS011;64121;48.666;8.114;2023-05-10T04:18:29;2.67;;;1.17;;
75537;SDS011;64121;48.666;8.114;2023-05-10T04:20:55;1.80;;;1.10;;
75537;SDS011;64121;48.666;8.114;2023-05-10T04:23:24;3.20;;;1.00;;
75537;SDS011;64121;48.666;8.114;2023-05-10T04:25:49;1.98;;;1.30;;
75537;SDS011;64121;48.666;8.114;2023-05-10T04:28:15;2.25;;;1.10;;
75537;SDS011;64121;48.666;8.114;2023-05-10T04:30:40;1.70;;;1.17;;
75537;SDS011;64121;48.666;8.114;2023-05-10T04:33:05;3.58;;;1.27;;
75537;SDS011;64121;48.666;8.114;2023-05-10T04:35:31;3.33;;;1.10;;
75537;SDS011;64121;48.666;8.114;2023-05-10T04:37:56;1.95;;;1.08;;
75537;SDS011;64121;48.666;8.114;2023-05-10T04:40:23;1.90;;;1.10;;
75537;SDS011;64121;48.666;8.114;2023-05-10T04:42:48;1.75;;;1.02;;
75537;SDS011;64121;48.666;8.114;2023-05-10T04:45:14;1.80;;;1.08;;
75537;SDS011;64121;48.666;8.114;2023-05-10T04:47:39;3.70;;;1.00;;
75537;SDS011;64121;48.666;8.114;2023-05-10T04:50:05;2.42;;;0.98;;
75537;SDS011;64121;48.666;8.114;2023-05-10T04:52:31;2.00;;;1.02;;
75537;SDS011;64121;48.666;8.114;2023-05-10T04:54:56;1.73;;;1.10;;
75537;SDS011;64121;48.666;8.114;2023-05-10T04:57:23;3.42;;;1.25;;
75537;SDS011;64121;48.666;8.114;2023-05-10T04:59:49;2.85;;;1.08;;
75537;SDS011;64121;48.666;8.114;2023-05-10T05:02:14;2.38;;;1.10;;
75537;SDS011;64121;48.666;8.114;2023-05-10T05:04:39;1.83;;;0.90;;
75537;SDS011;64121;48.666;8.114;2023-05-10T05:07:05;2.92;;;0.90;;
75537;SDS011;64121;48.666;8.114;2023-05-10T05:09:30;1.80;;;0.90;;
75537;SDS011;64121;48.666;8.114;2023-05-10T05:11:55;1.92;;;1.30;;
75537;SDS011;64121;48.666;8.114;2023-05-10T05:14:22;3.08;;;1.02;;
75537;SDS011;64121;48.666;8.114;2023-05-10T05:16:47;2.40;;;0.93;;
75537;SDS011;64121;48.666;8.114;2023-05-10T05:19:13;2.38;;;0.90;;
75537;SDS011;64121;48.666;8.114;2023-05-10T05:21:38;2.13;;;1.10;;
75537;SDS011;64121;48.666;8.114;2023-05-10T05:24:04;4.07;;;1.08;;
75537;SDS011;64121;48.666;8.114;2023-05-10T05:26:30;2.00;;;0.95;;
75537;SDS011;64121;48.666;8.114;2023-05-10T05:28:55;1.40;;;0.75;;
75537;SDS011;64121;48.666;8.114;2023-05-10T05:31:22;1.90;;;1.08;;
75537;SDS011;64121;48.666;8.114;2023-05-10T05:33:47;2.35;;;1.15;;
75537;SDS011;64121;48.666;8.114;2023-05-10T05:36:12;1.27;;;0.80;;
75537;SDS011;64121;48.666;8.114;2023-05-10T05:38:38;3.28;;;1.20;;
75537;SDS011;64121;48.666;8.114;2023-05-10T05:41:03;1.77;;;1.00;;
75537;SDS011;64121;48.666;8.114;2023-05-10T05:43:28;3.25;;;1.63;;
75537;SDS011;64121;48.666;8.114;2023-05-10T05:45:54;1.80;;;1.20;;
75537;SDS011;64121;48.666;8.114;2023-05-10T05:48:21;1.95;;;1.15;;
75537;SDS011;64121;48.666;8.114;2023-05-10T05:50:46;2.28;;;1.20;;
75537;SDS011;64121;48.666;8.114;2023-05-10T05:53:11;2.63;;;1.17;;
75537;SDS011;64121;48.666;8.114;2023-05-10T05:55:37;1.60;;;1.02;;
75537;SDS011;64121;48.666;8.114;2023-05-10T05:58:02;3.15;;;1.13;;
75537;SDS011;64121;48.666;8.114;2023-05-10T06:00:27;2.80;;;1.08;;
75537;SDS011;64121;48.666;8.114;2023-05-10T06:02:53;3.10;;;1.23;;
75537;SDS011;64121;48.666;8.114;2023-05-10T06:05:20;1.90;;;1.27;;
75537;SDS011;64121;48.666;8.114;2023-05-10T06:07:45;2.22;;;1.30;;
75537;SDS011;64121;48.666;8.114;2023-05-10T06:10:10;2.08;;;1.30;;
75537;SDS011;64121;48.666;8.114;2023-05-10T06:12:36;2.33;;;1.40;;
75537;SDS011;64121;48.666;8.114;2023-05-10T06:15:01;1.75;;;0.90;;
75537;SDS011;64121;48.666;8.114;2023-05-10T06:17:26;1.35;;;0.63;;
75537;SDS011;64121;48.666;8.114;2023-05-10T06:19:52;1.05;;;0.60;;
75537;SDS011;64121;48.666;8.114;2023-05-10T06:22:18;1.30;;;0.77;;
75537;SDS011;64121;48.666;8.114;2023-05-10T06:24:44;1.83;;;0.85;;
75537;SDS011;64121;48.666;8.114;2023-05-10T06:27:09;2.08;;;0.82;;
75537;SDS011;64121;48.666;8.114;2023-05-10T06:29:34;1.50;;;0.88;;
75537;SDS011;64121;48.666;8.114;2023-05-10T06:32:00;1.95;;;1.10;;
75537;SDS011;64121;48.666;8.114;2023-05-10T06:34:25;2.78;;;1.00;;
75537;SDS011;64121;48.666;8.114;2023-05-10T06:36:51;2.03;;;0.98;;
75537;SDS011;64121;48.666;8.114;2023-05-10T06:39:17;1.50;;;0.73;;
75537;SDS011;64121;48.666;8.114;2023-05-10T06:41:43;1.65;;;0.98;;
75537;SDS011;64121;48.666;8.114;2023-05-10T06:44:08;1.75;;;1.10;;
75537;SDS011;64121;48.666;8.114;2023-05-10T06:46:33;2.40;;;0.90;;
75537;SDS011;64121;48.666;8.114;2023-05-10T06:48:59;1.77;;;1.02;;
75537;SDS011;64121;48.666;8.114;2023-05-10T06:51:24;2.67;;;1.20;;
75537;SDS011;64121;48.666;8.114;2023-05-10T06:53:49;2.75;;;1.10;;
75537;SDS011;64121;48.666;8.114;2023-05-10T06:56:16;2.33;;;1.33;;
75537;SDS011;64121;48.666;8.114;2023-05-10T06:58:41;2.70;;;1.08;;
75537;SDS011;64121;48.666;8.114;2023-05-10T07:01:07;2.08;;;0.98;;
75537;SDS011;64121;48.666;8.114;2023-05-10T07:03:33;2.80;;;0.90;;
75537;SDS011;64121;48.666;8.114;2023-05-10T07:06:01;1.92;;;1.30;;
75537;SDS011;64121;48.666;8.114;2023-05-10T07:08:27;1.98;;;1.33;;
75537;SDS011;64121;48.666;8.114;2023-05-10T07:10:52;2.40;;;1.30;;
75537;SDS011;64121;48.666;8.114;2023-05-10T07:13:19;1.52;;;0.90;;
75537;SDS011;64121;48.666;8.114;2023-05-10T07:15:44;3.60;;;1.20;;
75537;SDS011;64121;48.666;8.114;2023-05-10T07:18:09;1.35;;;0.95;;
75537;SDS011;64121;48.666;8.114;2023-05-10T07:20:35;3.70;;;1.52;;
75537;SDS011;64121;48.666;8.114;2023-05-10T07:23:00;2.33;;;1.33;;
75537;SDS011;64121;48.666;8.114;2023-05-10T07:25:26;2.03;;;1.30;;
75537;SDS011;64121;48.666;8.114;2023-05-10T07:27:52;2.65;;;1.20;;
75537;SDS011;64121;48.666;8.114;2023-05-10T07:30:19;2.22;;;1.20;;
75537;SDS011;64121;48.666;8.114;2023-05-10T07:32:45;1.17;;;0.90;;
75537;SDS011;64121;48.666;8.114;2023-05-10T07:35:10;1.73;;;1.00;;
75537;SDS011;64121;48.666;8.114;2023-05-10T07:37:35;1.40;;;0.98;;
75537;SDS011;64121;48.666;8.114;2023-05-10T07:40:01;2.10;;;0.85;;
75537;SDS011;64121;48.666;8.114;2023-05-10T07:42:26;2.80;;;0.82;;
75537;SDS011;64121;48.666;8.114;2023-05-10T07:44:51;2.15;;;1.00;;
75537;SDS011;64121;48.666;8.114;2023-05-10T07:47:18;1.63;;;0.90;;
75537;SDS011;64121;48.666;8.114;2023-05-10T07:49:43;1.98;;;1.08;;
75537;SDS011;64121;48.666;8.114;2023-05-10T07:52:09;12.63;;;8.18;;
75537;SDS011;64121;48.666;8.114;2023-05-10T07:54:34;7.78;;;4.85;;
75537;SDS011;64121;48.666;8.114;2023-05-10T07:56:59;4.18;;;3.28;;
75537;SDS011;64121;48.666;8.114;2023-05-10T07:59:25;2.95;;;1.85;;
75537;SDS011;64121;48.666;8.114;2023-05-10T08:01:50;4.78;;;2.75;;
75537;SDS011;64121;48.666;8.114;2023-05-10T08:04:17;1.40;;;0.80;;
75537;SDS011;64121;48.666;8.114;2023-05-10T08:06:42;1.48;;;0.60;;
75537;SDS011;64121;48.666;8.114;2023-05-10T08:09:08;1.75;;;0.70;;
75537;SDS011;64121;48.666;8.114;2023-05-10T08:11:33;2.22;;;0.80;;
75537;SDS011;64121;48.666;8.114;2023-05-10T08:13:58;2.10;;;0.70;;
75537;SDS011;64121;48.666;8.114;2023-05-10T08:16:24;1.70;;;0.70;;
75537;SDS011;64121;48.666;8.114;2023-05-10T08:18:49;2.47;;;0.73;;
75537;SDS011;64121;48.666;8.114;2023-05-10T08:21:16;1.27;;;0.60;;
75537;SDS011;64121;48.666;8.114;2023-05-10T08:23:42;1.88;;;0.70;;
75537;SDS011;64121;48.666;8.114;2023-05-10T08:26:07;1.38;;;0.80;;
75537;SDS011;64121;48.666;8.114;2023-05-10T08:28:33;3.88;;;0.85;;
75537;SDS011;64121;48.666;8.114;2023-05-10T08:30:58;2.78;;;0.80;;
75537;SDS011;64121;48.666;8.114;2023-05-10T08:33:23;1.05;;;0.60;;
75537;SDS011;64121;48.666;8.114;2023-05-10T08:35:49;1.58;;;0.75;;
75537;SDS011;64121;48.666;8.114;2023-05-10T08:38:15;1.85;;;0.80;;
75537;SDS011;64121;48.666;8.114;2023-05-10T08:40:41;1.33;;;0.70;;
75537;SDS011;64121;48.666;8.114;2023-05-10T08:43:09;0.55;;;0.50;;
75537;SDS011;64121;48.666;8.114;2023-05-10T08:45:37;2.33;;;0.60;;
75537;SDS011;64121;48.666;8.114;2023-05-10T08:48:04;2.35;;;0.60;;
75537;SDS011;64121;48.666;8.114;2023-05-10T08:50:31;1.15;;;0.70;;
75537;SDS011;64121;48.666;8.114;2023-05-10T08:52:59;1.67;;;0.60;;
75537;SDS011;64121;48.666;8.114;2023-05-10T08:55:27;1.23;;;0.70;;
75537;SDS011;64121;48.666;8.114;2023-05-10T08:57:52;1.63;;;0.52;;
75537;SDS011;64121;48.666;8.114;2023-05-10T09:00:18;2.17;;;0.82;;
75537;SDS011;64121;48.666;8.114;2023-05-10T09:02:45;1.20;;;0.40;;
75537;SDS011;64121;48.666;8.114;2023-05-10T09:05:10;1.20;;;0.60;;
75537;SDS011;64121;48.666;8.114;2023-05-10T09:07:36;1.35;;;0.50;;
75537;SDS011;64121;48.666;8.114;2023-05-10T09:10:01;1.27;;;0.50;;
75537;SDS011;64121;48.666;8.114;2023-05-10T09:12:29;1.90;;;0.60;;
75537;SDS011;64121;48.666;8.114;2023-05-10T09:14:54;3.03;;;0.73;;
75537;SDS011;64121;48.666;8.114;2023-05-10T09:17:23;0.85;;;0.50;;
75537;SDS011;64121;48.666;8.114;2023-05-10T09:19:48;1.55;;;1.10;;
75537;SDS011;64121;48.666;8.114;2023-05-10T09:22:14;2.13;;;1.25;;
75537;SDS011;64121;48.666;8.114;2023-05-10T09:24:39;2.08;;;1.60;;
75537;SDS011;64121;48.666;8.114;2023-05-10T09:27:06;2.42;;;1.23;;
75537;SDS011;64121;48.666;8.114;2023-05-10T09:29:40;1.55;;;0.93;;
75537;SDS011;64121;48.666;8.114;2023-05-10T09:32:06;1.50;;;0.98;;
75537;SDS011;64121;48.666;8.114;2023-05-10T09:34:32;1.63;;;0.88;;
75537;SDS011;64121;48.666;8.114;2023-05-10T09:36:58;2.65;;;0.80;;
75537;SDS011;64121;48.666;8.114;2023-05-10T09:39:31;1.95;;;0.68;;
75537;SDS011;64121;48.666;8.114;2023-05-10T09:41:57;1.50;;;0.70;;
75537;SDS011;64121;48.666;8.114;2023-05-10T09:44:23;4.25;;;0.68;;
75537;SDS011;64121;48.666;8.114;2023-05-10T09:46:51;2.03;;;1.27;;
75537;SDS011;64121;48.666;8.114;2023-05-10T09:49:16;1.67;;;0.90;;
75537;SDS011;64121;48.666;8.114;2023-05-10T09:51:42;1.60;;;0.75;;
75537;SDS011;64121;48.666;8.114;2023-05-10T09:54:10;1.60;;;0.82;;
75537;SDS011;64121;48.666;8.114;2023-05-10T09:56:37;1.33;;;0.80;;
75537;SDS011;64121;48.666;8.114;2023-05-10T09:59:03;1.60;;;0.88;;
75537;SDS011;64121;48.666;8.114;2023-05-10T10:01:29;2.35;;;1.00;;
75537;SDS011;64121;48.666;8.114;2023-05-10T10:03:56;2.20;;;0.80;;
75537;SDS011;64121;48.666;8.114;2023-05-10T10:06:21;2.75;;;0.80;;
75537;SDS011;64121;48.666;8.114;2023-05-10T10:08:47;2.33;;;0.70;;
75537;SDS011;64121;48.666;8.114;2023-05-10T10:11:12;2.22;;;0.70;;
75537;SDS011;64121;48.666;8.114;2023-05-10T10:13:37;1.20;;;0.70;;
75537;SDS011;64121;48.666;8.114;2023-05-10T10:16:03;1.58;;;0.63;;
75537;SDS011;64121;48.666;8.114;2023-05-10T10:18:29;2.03;;;0.70;;
75537;SDS011;64121;48.666;8.114;2023-05-10T10:20:57;1.23;;;0.60;;
75537;SDS011;64121;48.666;8.114;2023-05-10T10:23:23;1.17;;;0.60;;
75537;SDS011;64121;48.666;8.114;2023-05-10T10:25:48;1.27;;;0.55;;
75537;SDS011;64121;48.666;8.114;2023-05-10T10:28:16;2.63;;;1.80;;
75537;SDS011;64121;48.666;8.114;2023-05-10T10:30:49;2.38;;;1.20;;
75537;SDS011;64121;48.666;8.114;2023-05-10T10:36:17;1.30;;;0.85;;
75537;SDS011;64121;48.666;8.114;2023-05-10T10:38:56;3.65;;;1.20;;
75537;SDS011;64121;48.666;8.114;2023-05-10T10:41:27;4.80;;;3.47;;
75537;SDS011;64121;48.666;8.114;2023-05-10T10:49:48;3.97;;;2.92;;
75537;SDS011;64121;48.666;8.114;2023-05-10T10:52:26;2.22;;;1.30;;
75537;SDS011;64121;48.666;8.114;2023-05-10T10:54:53;1.60;;;0.82;;
75537;SDS011;64121;48.666;8.114;2023-05-10T10:57:24;2.67;;;1.10;;
75537;SDS011;64121;48.666;8.114;2023-05-10T10:59:49;2.53;;;1.40;;
75537;SDS011;64121;48.666;8.114;2023-05-10T11:02:33;2.35;;;0.88;;
75537;SDS011;64121;48.666;8.114;2023-05-10T11:04:59;1.25;;;0.77;;
75537;SDS011;64121;48.666;8.114;2023-05-10T11:07:26;2.17;;;0.80;;
75537;SDS011;64121;48.666;8.114;2023-05-10T11:09:52;1.50;;;0.65;;
75537;SDS011;64121;48.666;8.114;2023-05-10T11:12:17;1.20;;;0.60;;
75537;SDS011;64121;48.666;8.114;2023-05-10T11:14:42;1.15;;;0.60;;
75537;SDS011;64121;48.666;8.114;2023-05-10T11:17:23;1.42;;;0.50;;
75537;SDS011;64121;48.666;8.114;2023-05-10T11:20:07;2.05;;;0.60;;
75537;SDS011;64121;48.666;8.114;2023-05-10T11:25:27;3.03;;;0.88;;
75537;SDS011;64121;48.666;8.114;2023-05-10T11:27:52;1.45;;;0.60;;
75537;SDS011;64121;48.666;8.114;2023-05-10T11:30:17;0.98;;;0.60;;
75537;SDS011;64121;48.666;8.114;2023-05-10T11:32:43;10.90;;;9.80;;
75537;SDS011;64121;48.666;8.114;2023-05-10T11:35:10;14.00;;;11.50;;
75537;SDS011;64121;48.666;8.114;2023-05-10T11:37:36;6.57;;;4.90;;
75537;SDS011;64121;48.666;8.114;2023-05-10T11:40:03;4.30;;;3.50;;
75537;SDS011;64121;48.666;8.114;2023-05-10T11:42:31;4.47;;;2.50;;
75537;SDS011;64121;48.666;8.114;2023-05-10T11:44:56;2.20;;;1.30;;
75537;SDS011;64121;48.666;8.114;2023-05-10T11:47:22;2.47;;;1.17;;
75537;SDS011;64121;48.666;8.114;2023-05-10T11:49:47;2.42;;;1.60;;
75537;SDS011;64121;48.666;8.114;2023-05-10T11:52:13;2.50;;;1.00;;
75537;SDS011;64121;48.666;8.114;2023-05-10T11:54:44;1.60;;;0.90;;
75537;SDS011;64121;48.666;8.114;2023-05-10T11:57:09;1.77;;;0.55;;
75537;SDS011;64121;48.666;8.114;2023-05-10T11:59:37;0.90;;;0.60;;
75537;SDS011;64121;48.666;8.114;2023-05-10T12:02:02;1.83;;;0.80;;
75537;SDS011;64121;48.666;8.114;2023-05-10T12:04:28;1.00;;;0.60;;
75537;SDS011;64121;48.666;8.114;2023-05-10T12:06:53;2.83;;;0.52;;
75537;SDS011;64121;48.666;8.114;2023-05-10T12:09:19;1.08;;;0.60;;
75537;SDS011;64121;48.666;8.114;2023-05-10T12:11:44;2.08;;;0.50;;
75537;SDS011;64121;48.666;8.114;2023-05-10T12:14:09;2.20;;;1.27;;
75537;SDS011;64121;48.666;8.114;2023-05-10T12:16:36;1.15;;;0.50;;
75537;SDS011;64121;48.666;8.114;2023-05-10T12:19:01;1.73;;;0.70;;
75537;SDS011;64121;48.666;8.114;2023-05-10T12:21:28;1.73;;;0.50;;
75537;SDS011;64121;48.666;8.114;2023-05-10T12:23:54;1.33;;;0.60;;
75537;SDS011;64121;48.666;8.114;2023-05-10T12:26:24;1.20;;;0.50;;
75537;SDS011;64121;48.666;8.114;2023-05-10T12:28:49;1.38;;;0.70;;
75537;SDS011;64121;48.666;8.114;2023-05-10T12:31:15;2.45;;;0.47;;
75537;SDS011;64121;48.666;8.114;2023-05-10T12:33:42;1.20;;;0.60;;
75537;SDS011;64121;48.666;8.114;2023-05-10T12:36:08;2.13;;;0.85;;
75537;SDS011;64121;48.666;8.114;2023-05-10T12:38:35;3.05;;;1.30;;
75537;SDS011;64121;48.666;8.114;2023-05-10T12:41:02;2.92;;;0.77;;
75537;SDS011;64121;48.666;8.114;2023-05-10T12:43:29;1.40;;;0.77;;
75537;SDS011;64121;48.666;8.114;2023-05-10T12:45:55;2.10;;;0.52;;
75537;SDS011;64121;48.666;8.114;2023-05-10T12:48:20;1.98;;;0.60;;
75537;SDS011;64121;48.666;8.114;2023-05-10T12:50:47;0.40;;;0.32;;
75537;SDS011;64121;48.666;8.114;2023-05-10T12:53:12;1.48;;;0.70;;
75537;SDS011;64121;48.666;8.114;2023-05-10T12:55:38;1.30;;;0.40;;
75537;SDS011;64121;48.666;8.114;2023-05-10T12:58:03;2.55;;;0.50;;
75537;SDS011;64121;48.666;8.114;2023-05-10T13:00:28;1.52;;;0.68;;
75537;SDS011;64121;48.666;8.114;2023-05-10T13:02:54;1.20;;;0.50;;
75537;SDS011;64121;48.666;8.114;2023-05-10T13:05:19;0.80;;;0.43;;
75537;SDS011;64121;48.666;8.114;2023-05-10T13:07:46;1.55;;;0.50;;
75537;SDS011;64121;48.666;8.114;2023-05-10T13:10:11;2.88;;;0.63;;
75537;SDS011;64121;48.666;8.114;2023-05-10T13:12:37;1.35;;;0.60;;
75537;SDS011;64121;48.666;8.114;2023-05-10T13:15:02;1.30;;;0.50;;
75537;SDS011;64121;48.666;8.114;2023-05-10T13:17:28;1.52;;;0.70;;
75537;SDS011;64121;48.666;8.114;2023-05-10T13:19:53;1.17;;;0.50;;
75537;SDS011;64121;48.666;8.114;2023-05-10T13:22:19;1.55;;;0.90;;
75537;SDS011;64121;48.666;8.114;2023-05-10T13:24:46;2.08;;;0.47;;
75537;SDS011;64121;48.666;8.114;2023-05-10T13:27:11;0.47;;;0.40;;
75537;SDS011;64121;48.666;8.114;2023-05-10T13:29:36;0.75;;;0.47;;
75537;SDS011;64121;48.666;8.114;2023-05-10T13:32:02;1.83;;;0.60;;
75537;SDS011;64121;48.666;8.114;2023-05-10T13:34:27;0.80;;;0.50;;
75537;SDS011;64121;48.666;8.114;2023-05-10T13:36:52;0.88;;;0.60;;
75537;SDS011;64121;48.666;8.114;2023-05-10T13:39:18;1.63;;;0.50;;
75537;SDS011;64121;48.666;8.114;2023-05-10T13:41:44;1.27;;;0.45;;
75537;SDS011;64121;48.666;8.114;2023-05-10T13:44:11;1.45;;;0.50;;
75537;SDS011;64121;48.666;8.114;2023-05-10T13:46:37;1.27;;;0.45;;
75537;SDS011;64121;48.666;8.114;2023-05-10T13:49:02;3.70;;;0.90;;
75537;SDS011;64121;48.666;8.114;2023-05-10T13:51:27;31.77;;;29.00;;
75537;SDS011;64121;48.666;8.114;2023-05-10T13:53:53;23.77;;;21.45;;
75537;SDS011;64121;48.666;8.114;2023-05-10T13:56:18;30.30;;;23.40;;
75537;SDS011;64121;48.666;8.114;2023-05-10T13:58:45;10.75;;;7.85;;
75537;SDS011;64121;48.666;8.114;2023-05-10T14:01:10;2.97;;;1.15;;
75537;SDS011;64121;48.666;8.114;2023-05-10T14:03:35;1.05;;;0.50;;
75537;SDS011;64121;48.666;8.114;2023-05-10T14:06:01;1.55;;;0.60;;
75537;SDS011;64121;48.666;8.114;2023-05-10T14:08:26;2.30;;;0.80;;
75537;SDS011;64121;48.666;8.114;2023-05-10T14:10:51;1.58;;;0.70;;
75537;SDS011;64121;48.666;8.114;2023-05-10T14:13:17;1.30;;;0.85;;
75537;SDS011;64121;48.666;8.114;2023-05-10T14:15:43;1.33;;;0.50;;
75537;SDS011;64121;48.666;8.114;2023-05-10T14:18:09;0.80;;;0.40;;
75537;SDS011;64121;48.666;8.114;2023-05-10T14:20:34;0.90;;;0.50;;
75537;SDS011;64121;48.666;8.114;2023-05-10T14:22:59;1.60;;;0.57;;
75537;SDS011;64121;48.666;8.114;2023-05-10T14:25:25;2.42;;;0.60;;
75537;SDS011;64121;48.666;8.114;2023-05-10T14:27:50;1.55;;;0.60;;
75537;SDS011;64121;48.666;8.114;2023-05-10T14:30:16;1.38;;;0.52;;
75537;SDS011;64121;48.666;8.114;2023-05-10T14:32:42;0.65;;;0.40;;
75537;SDS011;64121;48.666;8.114;2023-05-10T14:35:08;3.63;;;0.60;;
75537;SDS011;64121;48.666;8.114;2023-05-10T14:37:33;5.13;;;0.60;;
75537;SDS011;64121;48.666;8.114;2023-05-10T14:39:58;2.92;;;0.57;;
75537;SDS011;64121;48.666;8.114;2023-05-10T14:42:24;3.47;;;0.63;;
75537;SDS011;64121;48.666;8.114;2023-05-10T14:44:49;2.70;;;0.70;;
75537;SDS011;64121;48.666;8.114;2023-05-10T14:47:14;0.60;;;0.40;;
75537;SDS011;64121;48.666;8.114;2023-05-10T14:49:41;0.98;;;0.47;;
75537;SDS011;64121;48.666;8.114;2023-05-10T14:52:06;1.25;;;0.40;;
75537;SDS011;64121;48.666;8.114;2023-05-10T14:54:32;1.77;;;0.60;;
75537;SDS011;64121;48.666;8.114;2023-05-10T14:56:57;1.00;;;0.57;;
75537;SDS011;64121;48.666;8.114;2023-05-10T14:59:22;1.35;;;0.50;;